Time;durP1;ratioP1;P1;durP2;ratioP2;P2;SDS_P1;SDS_P2;PMS_P1;PMS_P2;Temp;Humidity;BMP_temperature;BMP_pressure;BME280_temperature;BME280_humidity;BME280_pressure;Samples;Min_cycle;Max_cycle;Signal;HPM_P1;HPM_P2
2021/11/04 00:02:58;;;;;;;22.57;19.67;;;12.40;99.90;;;;;;6203395;28;20497;-67
2021/11/04 00:06:03;;;;;;;21.70;18.57;;;12.50;99.90;;;;;;6204121;28;20473;-67
2021/11/04 00:09:07;;;;;;;21.97;19.63;;;12.50;99.90;;;;;;6204439;28;21022;-67
2021/11/04 00:12:10;;;;;;;25.97;19.53;;;12.50;99.90;;;;;;6203137;28;20596;-66
2021/11/04 00:15:14;;;;;;;24.47;21.97;;;12.30;99.90;;;;;;6202166;28;20476;-67
2021/11/04 00:18:17;;;;;;;22.70;18.50;;;12.40;99.90;;;;;;6202737;28;20477;-64
2021/11/04 00:21:21;;;;;;;22.80;20.43;;;12.40;99.90;;;;;;6193333;28;20547;-64
2021/11/04 00:24:25;;;;;;;21.90;18.57;;;12.50;99.90;;;;;;6192880;28;20980;-65
2021/11/04 00:27:28;;;;;;;21.80;19.60;;;12.50;99.90;;;;;;6178248;28;20499;-64
2021/11/04 00:30:31;;;;;;;27.07;22.10;;;12.50;99.90;;;;;;6177861;28;20469;-64
2021/11/04 00:33:36;;;;;;;22.67;19.80;;;12.50;99.90;;;;;;6177920;28;20477;-65
2021/11/04 00:36:43;;;;;;;22.43;19.37;;;12.60;99.90;;;;;;6201771;28;20477;-64
2021/11/04 00:39:46;;;;;;;23.40;20.23;;;12.60;99.90;;;;;;6201533;28;20496;-65
2021/11/04 00:42:50;;;;;;;22.90;19.87;;;12.50;99.90;;;;;;6201601;28;20469;-65
2021/11/04 00:45:53;;;;;;;25.70;21.13;;;12.60;99.90;;;;;;6202288;28;20500;-64
2021/11/04 00:48:56;;;;;;;25.83;23.00;;;12.60;99.90;;;;;;6202099;28;20473;-65
2021/11/04 00:52:01;;;;;;;23.77;20.17;;;12.40;99.90;;;;;;6201687;28;20549;-64
2021/11/04 00:55:04;;;;;;;25.50;20.83;;;12.40;99.90;;;;;;6201245;28;20480;-64
2021/11/04 00:58:07;;;;;;;25.60;22.33;;;12.40;99.90;;;;;;6201598;28;20981;-63
2021/11/04 01:01:10;;;;;;;26.07;22.20;;;12.40;99.90;;;;;;6201457;28;20476;-65
2021/11/04 01:04:14;;;;;;;26.93;21.57;;;12.40;99.90;;;;;;6200389;28;20488;-68
2021/11/04 01:07:18;;;;;;;24.50;19.53;;;12.40;99.90;;;;;;6200086;28;20496;-68
2021/11/04 01:10:21;;;;;;;24.73;20.03;;;12.50;99.90;;;;;;6200084;28;20483;-68
2021/11/04 01:13:24;;;;;;;25.07;20.73;;;12.50;99.90;;;;;;6200091;28;20477;-67
2021/11/04 01:16:28;;;;;;;24.23;20.13;;;12.50;99.90;;;;;;6199801;28;20472;-68
2021/11/04 01:19:31;;;;;;;31.67;21.67;;;12.50;99.90;;;;;;6199520;28;20948;-67
2021/11/04 01:22:36;;;;;;;28.10;21.27;;;12.60;99.90;;;;;;6200236;28;20485;-68
2021/11/04 01:25:39;;;;;;;26.07;21.20;;;12.50;99.90;;;;;;6196635;28;20465;-68
2021/11/04 01:28:42;;;;;;;28.47;22.57;;;12.50;99.90;;;;;;6200355;28;20469;-68
2021/11/04 01:31:46;;;;;;;33.03;23.63;;;12.60;99.90;;;;;;6200410;28;20472;-68
2021/11/04 01:34:49;;;;;;;33.90;22.43;;;12.50;99.90;;;;;;6200621;28;20473;-68
2021/11/04 01:37:54;;;;;;;32.50;24.10;;;12.50;99.90;;;;;;6200805;28;20465;-68
2021/11/04 01:40:58;;;;;;;31.60;22.70;;;12.50;99.90;;;;;;6201399;28;20535;-68
2021/11/04 01:44:01;;;;;;;33.33;23.50;;;12.50;99.90;;;;;;6201373;28;20539;-68
2021/11/04 01:47:05;;;;;;;30.30;21.80;;;12.50;99.90;;;;;;6201061;28;20493;-69
2021/11/04 01:50:08;;;;;;;28.97;22.50;;;12.60;99.90;;;;;;6200794;28;20477;-68
2021/11/04 01:53:13;;;;;;;29.97;23.30;;;12.60;99.90;;;;;;6201288;28;20768;-68
2021/11/04 01:56:16;;;;;;;33.07;24.57;;;12.50;99.90;;;;;;6200581;28;20491;-68
2021/11/04 01:59:19;;;;;;;26.93;21.93;;;12.60;99.90;;;;;;6201260;28;20464;-68
2021/11/04 02:02:24;;;;;;;27.67;22.20;;;12.60;99.90;;;;;;6200924;28;20456;-68
2021/11/04 02:05:38;;;;;;;34.20;23.53;;;12.60;99.90;;;;;;6205146;28;20483;-68
2021/11/04 02:08:47;;;;;;;32.73;23.43;;;12.60;99.90;;;;;;6205620;28;20477;-68
2021/11/04 02:11:53;;;;;;;34.97;23.10;;;12.60;99.90;;;;;;6205292;28;20464;-68
2021/11/04 02:15:00;;;;;;;28.13;21.20;;;12.50;99.90;;;;;;6205645;28;20468;-68
2021/11/04 02:18:07;;;;;;;29.03;20.97;;;12.50;99.90;;;;;;6206357;28;20471;-68
2021/11/04 02:21:16;;;;;;;31.50;21.63;;;12.40;99.90;;;;;;6205125;28;20468;-68
2021/11/04 02:24:28;;;;;;;28.67;20.53;;;12.20;99.90;;;;;;6205000;28;20972;-68
2021/11/04 02:27:33;;;;;;;26.63;20.30;;;12.30;99.90;;;;;;6205626;28;20500;-68
2021/11/04 02:30:37;;;;;;;25.53;19.37;;;12.30;99.90;;;;;;6197984;28;20837;-68
2021/11/04 02:33:41;;;;;;;23.43;18.50;;;12.30;99.90;;;;;;6205395;28;20491;-68
2021/11/04 02:36:46;;;;;;;27.60;20.80;;;12.30;99.90;;;;;;6205272;28;21007;-68
2021/11/04 02:39:49;;;;;;;27.60;21.27;;;12.30;99.90;;;;;;6204455;28;20818;-68
2021/11/04 02:42:54;;;;;;;24.90;21.70;;;12.30;99.90;;;;;;6205489;28;20475;-68
2021/11/04 02:45:58;;;;;;;27.60;22.77;;;12.40;99.90;;;;;;6204544;28;20476;-68
2021/11/04 02:49:01;;;;;;;23.60;20.07;;;12.40;99.90;;;;;;6204756;28;20477;-68
2021/11/04 02:52:05;;;;;;;25.20;20.83;;;12.40;99.90;;;;;;6204698;28;20483;-68
2021/11/04 02:55:09;;;;;;;27.33;22.27;;;12.50;99.90;;;;;;6204449;28;20860;-68
2021/11/04 02:58:14;;;;;;;23.03;20.30;;;12.40;99.90;;;;;;6204486;28;20483;-68
2021/11/04 03:01:17;;;;;;;23.23;20.83;;;12.40;99.90;;;;;;6203951;28;20932;-68
2021/11/04 03:04:21;;;;;;;26.13;20.90;;;12.50;99.90;;;;;;6204031;28;20468;-68
2021/11/04 03:07:25;;;;;;;20.63;18.43;;;12.50;99.90;;;;;;6204688;28;20492;-68
2021/11/04 03:10:28;;;;;;;19.97;17.53;;;12.50;99.90;;;;;;6204573;28;20477;-68
2021/11/04 03:13:34;;;;;;;21.73;18.23;;;12.40;99.90;;;;;;6204094;28;20519;-68
2021/11/04 03:16:40;;;;;;;19.60;17.20;;;12.40;99.90;;;;;;6204319;28;20481;-68
2021/11/04 03:19:43;;;;;;;20.97;18.87;;;12.40;99.90;;;;;;6203722;28;20479;-68
2021/11/04 03:22:48;;;;;;;19.53;17.43;;;12.40;99.90;;;;;;6203539;28;20469;-68
2021/11/04 03:25:52;;;;;;;19.53;17.30;;;12.30;99.90;;;;;;6203672;28;20879;-68
2021/11/04 03:28:58;;;;;;;20.20;17.90;;;12.40;99.90;;;;;;6203291;28;20495;-68
2021/11/04 03:32:04;;;;;;;25.20;19.60;;;12.40;99.90;;;;;;6203662;28;20806;-68
2021/11/04 03:35:08;;;;;;;25.37;18.47;;;12.30;99.90;;;;;;6198208;28;20491;-68
2021/11/04 03:38:13;;;;;;;19.20;17.13;;;12.30;99.90;;;;;;6203695;28;20485;-68
2021/11/04 03:41:19;;;;;;;20.97;18.63;;;12.30;99.90;;;;;;6203617;28;20542;-67
2021/11/04 03:44:24;;;;;;;22.80;19.80;;;12.30;99.90;;;;;;6203284;28;20912;-68
2021/11/04 03:47:30;;;;;;;25.10;21.40;;;12.30;99.90;;;;;;6203687;28;20473;-68
2021/11/04 03:50:36;;;;;;;23.73;21.53;;;12.30;99.90;;;;;;6203380;28;20485;-68
2021/11/04 03:53:41;;;;;;;22.40;20.20;;;12.40;99.90;;;;;;6203183;28;20465;-68
2021/11/04 03:56:45;;;;;;;23.93;21.40;;;12.40;99.90;;;;;;6203514;28;20538;-68
2021/11/04 03:59:49;;;;;;;27.37;19.73;;;12.40;99.90;;;;;;6203707;28;20471;-68
2021/11/04 04:02:52;;;;;;;24.87;21.20;;;12.40;99.90;;;;;;6203062;28;20488;-68
2021/11/04 04:06:00;;;;;;;28.20;21.83;;;12.40;99.90;;;;;;6202968;28;20472;-68
2021/11/04 04:09:04;;;;;;;23.27;20.77;;;12.50;99.90;;;;;;6203399;28;20465;-68
2021/11/04 04:12:08;;;;;;;23.27;20.73;;;12.50;99.90;;;;;;6204312;28;20483;-69
2021/11/04 04:15:13;;;;;;;28.70;22.17;;;12.60;99.90;;;;;;6203187;28;20472;-69
2021/11/04 04:18:16;;;;;;;25.20;20.90;;;12.60;99.90;;;;;;6202731;28;20550;-69
2021/11/04 04:21:19;;;;;;;29.93;26.70;;;12.60;99.90;;;;;;6202293;28;20492;-68
2021/11/04 04:24:22;;;;;;;30.33;25.17;;;12.70;99.90;;;;;;6202213;28;20527;-68
2021/11/04 04:27:26;;;;;;;27.33;24.07;;;12.60;99.90;;;;;;6201248;28;20499;-69
2021/11/04 04:30:30;;;;;;;26.53;23.73;;;12.70;99.90;;;;;;6202441;28;20480;-68
2021/11/04 04:33:33;;;;;;;27.30;24.50;;;12.60;99.90;;;;;;6202652;28;20480;-68
2021/11/04 04:36:36;;;;;;;29.50;24.93;;;12.70;99.90;;;;;;6202931;28;20476;-68
2021/11/04 04:39:40;;;;;;;29.53;25.77;;;12.60;99.90;;;;;;6202990;28;20469;-68
2021/11/04 04:42:43;;;;;;;29.27;24.87;;;12.60;99.90;;;;;;6203852;28;20476;-68
2021/11/04 04:45:48;;;;;;;28.90;25.87;;;12.50;99.90;;;;;;6203412;28;20487;-68
2021/11/04 04:48:52;;;;;;;31.30;23.30;;;12.50;99.90;;;;;;6203075;28;20484;-68
2021/11/04 04:51:55;;;;;;;29.43;24.53;;;12.50;99.90;;;;;;6202289;28;20476;-68
2021/11/04 04:54:58;;;;;;;29.07;24.90;;;12.20;99.90;;;;;;6202171;28;20476;-68
2021/11/04 04:58:01;;;;;;;32.13;25.80;;;12.10;99.90;;;;;;6202031;28;20472;-68
2021/11/04 05:01:06;;;;;;;31.80;26.70;;;12.00;99.90;;;;;;6202483;28;20480;-68
2021/11/04 05:04:09;;;;;;;31.57;26.97;;;12.10;99.90;;;;;;6202320;28;20472;-68
2021/11/04 05:07:12;;;;;;;28.07;25.17;;;12.10;99.90;;;;;;6202076;28;20472;-68
2021/11/04 05:10:15;;;;;;;28.73;25.83;;;12.10;99.90;;;;;;6202306;28;20488;-68
2021/11/04 05:13:18;;;;;;;28.90;24.50;;;12.20;99.90;;;;;;6201767;28;20484;-68
2021/11/04 05:16:23;;;;;;;25.87;23.20;;;12.30;99.90;;;;;;6201458;28;20975;-67
2021/11/04 05:19:26;;;;;;;23.57;21.37;;;12.20;99.90;;;;;;6201836;28;20472;-68
2021/11/04 05:22:29;;;;;;;22.60;20.30;;;12.20;99.90;;;;;;6201910;28;20476;-68
2021/11/04 05:25:33;;;;;;;20.63;18.70;;;12.20;99.90;;;;;;6201523;28;20484;-68
2021/11/04 05:28:37;;;;;;;21.23;19.03;;;12.30;99.90;;;;;;6201462;28;20554;-68
2021/11/04 05:31:42;;;;;;;21.40;19.20;;;12.30;99.90;;;;;;6200868;28;20476;-68
2021/11/04 05:34:46;;;;;;;20.03;18.13;;;12.40;99.90;;;;;;6201636;28;20480;-68
2021/11/04 05:37:49;;;;;;;19.33;17.53;;;12.40;99.90;;;;;;6203087;28;20488;-68
2021/11/04 05:40:52;;;;;;;18.53;16.93;;;12.50;99.90;;;;;;6206428;28;20469;-68
2021/11/04 05:43:55;;;;;;;18.23;16.53;;;12.40;99.90;;;;;;6197588;28;20488;-68
2021/11/04 05:47:00;;;;;;;20.90;18.90;;;12.40;99.90;;;;;;6206459;28;20492;-68
2021/11/04 05:50:04;;;;;;;17.63;15.73;;;12.40;99.90;;;;;;6206154;28;20551;-68
2021/11/04 05:53:07;;;;;;;18.87;16.73;;;12.40;99.90;;;;;;6206325;28;20507;-68
2021/11/04 05:56:10;;;;;;;18.90;16.10;;;12.30;99.90;;;;;;6205451;28;20484;-67
2021/11/04 05:59:13;;;;;;;17.77;15.90;;;12.30;99.90;;;;;;6205577;28;20473;-68
2021/11/04 06:02:18;;;;;;;19.10;17.20;;;12.30;99.90;;;;;;6206377;28;20480;-68
2021/11/04 06:05:21;;;;;;;17.30;15.60;;;12.40;99.90;;;;;;6206099;28;20541;-67
2021/11/04 06:08:25;;;;;;;19.00;16.70;;;12.50;99.90;;;;;;6205880;28;20459;-68
2021/11/04 06:11:28;;;;;;;15.10;13.70;;;12.50;99.90;;;;;;6205767;28;20491;-69
2021/11/04 06:14:31;;;;;;;17.20;15.00;;;12.60;99.90;;;;;;6207737;28;20459;-68
2021/11/04 06:17:36;;;;;;;17.53;15.83;;;12.60;99.90;;;;;;6205814;28;20476;-69
2021/11/04 06:20:39;;;;;;;16.93;15.33;;;12.70;99.90;;;;;;6205482;28;20465;-68
2021/11/04 06:23:42;;;;;;;17.20;15.57;;;12.80;99.90;;;;;;6205640;28;20475;-68
2021/11/04 06:26:45;;;;;;;17.77;14.57;;;12.90;99.90;;;;;;6205713;28;20480;-69
2021/11/04 06:29:48;;;;;;;19.27;14.97;;;12.90;99.90;;;;;;6205199;28;20975;-68
2021/11/04 06:32:53;;;;;;;16.53;15.00;;;12.90;99.90;;;;;;6205494;28;20472;-68
2021/11/04 06:35:56;;;;;;;16.33;14.93;;;13.00;99.90;;;;;;6205333;28;20468;-69
2021/11/04 06:39:00;;;;;;;15.43;13.87;;;13.00;99.90;;;;;;6204631;28;20999;-68
2021/11/04 06:42:03;;;;;;;17.90;16.30;;;13.10;99.90;;;;;;6205152;28;20472;-68
2021/11/04 06:45:08;;;;;;;19.10;17.20;;;13.00;99.90;;;;;;6200965;28;20497;-68
2021/11/04 06:48:17;;;;;;;15.70;14.20;;;13.10;99.90;;;;;;6205112;28;20495;-68
2021/11/04 06:51:24;;;;;;;16.80;14.20;;;13.10;99.90;;;;;;6204442;28;20489;-68
2021/11/04 06:54:28;;;;;;;18.37;13.73;;;13.10;99.90;;;;;;6204898;28;20801;-70
2021/11/04 06:57:34;;;;;;;14.43;12.93;;;13.10;99.90;;;;;;6204547;28;20568;-69
2021/11/04 07:00:40;;;;;;;17.70;15.97;;;13.20;99.90;;;;;;6204668;28;20799;-68
2021/11/04 07:03:49;;;;;;;19.67;17.60;;;13.20;99.90;;;;;;6204760;28;20547;-68
2021/11/04 07:07:00;;;;;;;17.47;15.70;;;13.20;99.90;;;;;;6204212;28;20480;-68
2021/11/04 07:10:03;;;;;;;19.83;17.80;;;13.30;99.90;;;;;;6204553;28;20547;-68
2021/11/04 07:13:07;;;;;;;17.97;16.23;;;13.50;99.90;;;;;;6204271;28;20476;-68
2021/11/04 07:16:12;;;;;;;17.43;15.33;;;13.50;99.90;;;;;;6204273;28;20485;-68
2021/11/04 07:19:19;;;;;;;18.23;16.03;;;13.70;99.90;;;;;;6204395;28;20492;-68
2021/11/04 07:22:35;;;;;;;17.90;16.10;;;13.80;99.90;;;;;;6204208;28;20477;-67
2021/11/04 07:25:44;;;;;;;20.20;16.23;;;13.90;99.90;;;;;;6204277;28;20488;-66
2021/11/04 07:28:54;;;;;;;16.77;15.07;;;14.00;99.90;;;;;;6203532;28;20488;-66
2021/11/04 07:31:57;;;;;;;15.70;14.30;;;14.10;99.90;;;;;;6204023;28;20543;-67
2021/11/04 07:35:04;;;;;;;15.47;13.93;;;14.10;99.90;;;;;;6203836;28;20477;-68
2021/11/04 07:38:12;;;;;;;14.73;13.27;;;14.20;99.90;;;;;;6204216;28;20481;-68
2021/11/04 07:41:16;;;;;;;14.90;13.60;;;14.20;99.90;;;;;;6204025;28;20477;-68
2021/11/04 07:44:19;;;;;;;16.03;14.40;;;14.20;99.90;;;;;;6203698;28;20477;-68
2021/11/04 07:47:22;;;;;;;13.80;12.47;;;14.30;99.90;;;;;;6179301;28;20521;-68
2021/11/04 07:50:28;;;;;;;15.20;13.77;;;14.30;99.90;;;;;;6179043;28;20804;-67
2021/11/04 07:53:31;;;;;;;18.87;13.20;;;14.30;99.90;;;;;;6180959;28;20442;-67
2021/11/04 07:56:35;;;;;;;12.83;11.53;;;14.40;99.90;;;;;;6202942;28;20782;-67
2021/11/04 07:59:43;;;;;;;14.47;13.17;;;14.50;99.90;;;;;;6203011;28;20460;-68
2021/11/04 08:02:46;;;;;;;15.20;13.90;;;14.60;99.90;;;;;;6202396;28;20772;-67
2021/11/04 08:05:51;;;;;;;13.10;11.83;;;14.60;99.90;;;;;;6203661;28;20526;-67
2021/11/04 08:08:54;;;;;;;13.33;12.20;;;14.50;99.90;;;;;;6203462;28;20461;-67
2021/11/04 08:11:59;;;;;;;14.33;12.93;;;14.50;99.90;;;;;;6203456;28;20782;-67
2021/11/04 08:15:02;;;;;;;15.57;14.03;;;14.60;99.90;;;;;;6203244;28;20465;-67
2021/11/04 08:18:07;;;;;;;14.50;13.17;;;14.80;99.90;;;;;;6203172;28;20480;-68
2021/11/04 08:21:11;;;;;;;12.33;11.13;;;15.00;99.90;;;;;;6202997;28;20477;-67
2021/11/04 08:24:15;;;;;;;13.13;11.53;;;15.00;99.90;;;;;;6202295;28;20782;-70
2021/11/04 08:27:19;;;;;;;9.80;8.80;;;15.00;99.90;;;;;;6202053;28;20484;-67
2021/11/04 08:30:24;;;;;;;11.83;10.70;;;14.80;99.90;;;;;;6202017;28;20849;-67
2021/11/04 08:33:27;;;;;;;11.90;10.70;;;14.80;99.90;;;;;;6192260;28;20984;-67
2021/11/04 08:36:32;;;;;;;12.43;9.03;;;14.70;99.90;;;;;;6178395;28;20473;-67
2021/11/04 08:39:35;;;;;;;9.93;8.87;;;14.80;99.90;;;;;;6178484;28;20919;-65
2021/11/04 08:42:39;;;;;;;9.73;8.83;;;14.60;99.90;;;;;;6176047;28;20841;-66
2021/11/04 08:45:42;;;;;;;9.00;8.10;;;14.60;99.90;;;;;;6160478;28;20484;-66
2021/11/04 08:48:45;;;;;;;8.13;7.40;;;14.70;99.90;;;;;;6178044;28;20470;-65
2021/11/04 08:51:53;;;;;;;6.83;6.10;;;14.80;99.90;;;;;;6177504;28;20484;-65
2021/11/04 08:54:56;;;;;;;7.10;6.40;;;15.10;99.90;;;;;;6177430;28;21001;-65
2021/11/04 08:57:59;;;;;;;9.20;6.43;;;15.40;99.90;;;;;;6176729;28;20797;-65
2021/11/04 09:01:03;;;;;;;6.57;5.97;;;15.70;99.90;;;;;;6175838;28;20936;-67
2021/11/04 09:04:12;;;;;;;7.63;5.93;;;16.20;99.90;;;;;;6180306;28;20474;-67
2021/11/04 09:07:18;;;;;;;6.57;5.90;;;16.50;99.90;;;;;;6189311;28;20496;-67
2021/11/04 09:10:22;;;;;;;8.63;7.70;;;16.60;99.90;;;;;;6161578;28;21164;-66
2021/11/04 09:13:25;;;;;;;7.93;6.67;;;16.80;99.90;;;;;;6193413;28;20481;-66
2021/11/04 09:16:29;;;;;;;5.40;4.90;;;16.70;99.90;;;;;;6200939;28;20483;-67
2021/11/04 09:19:32;;;;;;;5.60;4.97;;;16.80;99.90;;;;;;6200758;28;20809;-67
2021/11/04 09:22:37;;;;;;;5.57;5.00;;;17.30;99.90;;;;;;6200696;28;20477;-67
2021/11/04 09:25:42;;;;;;;5.97;5.47;;;17.40;99.90;;;;;;6201205;28;20481;-65
2021/11/04 09:28:45;;;;;;;6.93;5.50;;;17.30;99.90;;;;;;6201379;28;20477;-68
2021/11/04 09:31:48;;;;;;;5.80;5.30;;;17.40;99.90;;;;;;6201186;28;20483;-69
2021/11/04 09:34:51;;;;;;;6.33;4.60;;;17.40;99.90;;;;;;6201239;28;20473;-69
2021/11/04 09:37:56;;;;;;;4.60;4.17;;;19.10;99.70;;;;;;6177304;28;20484;-69
2021/11/04 09:40:59;;;;;;;4.90;4.50;;;24.30;91.40;;;;;;6176790;28;20230;-70
2021/11/04 09:44:03;;;;;;;4.87;4.37;;;29.40;66.30;;;;;;6177139;28;20236;-70
2021/11/04 09:47:06;;;;;;;4.53;4.18;;;33.30;49.30;;;;;;6176964;28;20240;-70
2021/11/04 09:50:13;;;;;;;4.13;3.83;;;36.10;38.90;;;;;;6199846;28;20233;-70
2021/11/04 09:53:17;;;;;;;5.28;3.40;;;38.60;34.30;;;;;;6201406;28;20301;-70
2021/11/04 09:56:21;;;;;;;4.18;3.80;;;39.10;30.60;;;;;;6174573;28;20237;-70
2021/11/04 09:59:24;;;;;;;4.30;3.90;;;40.10;28.50;;;;;;6201075;28;20228;-70
2021/11/04 10:02:29;;;;;;;4.57;4.18;;;40.70;27.60;;;;;;6201216;28;20264;-68
2021/11/04 10:05:40;;;;;;;4.80;4.38;;;42.00;26.20;;;;;;6201182;28;20580;-70
2021/11/04 10:08:44;;;;;;;5.57;3.72;;;43.00;25.50;;;;;;6201587;28;20242;-68
2021/11/04 10:11:48;;;;;;;4.18;3.58;;;44.20;24.10;;;;;;6201509;28;20244;-68
2021/11/04 10:14:51;;;;;;;3.65;3.40;;;45.00;22.80;;;;;;6200872;28;20231;-69
2021/11/04 10:18:09;;;;;;;3.60;3.30;;;44.90;22.30;;;;;;6201728;28;20231;-70
2021/11/04 10:21:12;;;;;;;3.55;2.75;;;45.00;21.90;;;;;;6200423;28;20264;-70
2021/11/04 10:24:18;;;;;;;5.07;3.10;;;44.90;21.70;;;;;;6201639;28;20711;-70
2021/11/04 10:27:34;;;;;;;3.28;2.70;;;45.50;21.10;;;;;;6205190;28;20574;-70
2021/11/04 10:30:40;;;;;;;3.70;3.30;;;46.60;20.60;;;;;;6204670;28;20229;-70
2021/11/04 10:33:45;;;;;;;2.90;2.47;;;46.80;20.10;;;;;;6205008;28;20232;-70
2021/11/04 10:36:49;;;;;;;5.53;2.95;;;46.60;19.40;;;;;;6204785;28;20260;-71
2021/11/04 10:39:54;;;;;;;3.15;2.35;;;46.80;19.40;;;;;;6204490;28;20240;-71
2021/11/04 10:42:58;;;;;;;5.18;2.88;;;47.60;18.90;;;;;;6204502;28;20679;-70
2021/11/04 10:46:07;;;;;;;2.58;2.38;;;48.20;18.50;;;;;;6204469;28;20236;-70
2021/11/04 10:49:11;;;;;;;2.28;2.08;;;48.30;17.60;;;;;;6204569;28;20229;-70
2021/11/04 10:52:16;;;;;;;2.33;2.10;;;48.50;17.40;;;;;;6204689;28;20221;-70
2021/11/04 10:55:31;;;;;;;2.33;2.22;;;49.10;17.20;;;;;;6204742;28;20236;-68
2021/11/04 10:58:35;;;;;;;1.70;1.60;;;49.20;17.00;;;;;;6203447;28;20299;-67
2021/11/04 11:01:41;;;;;;;1.77;1.67;;;48.90;16.50;;;;;;6199671;28;20247;-68
2021/11/04 11:04:45;;;;;;;2.42;2.22;;;46.10;17.30;;;;;;6203551;28;20572;-69
2021/11/04 11:07:48;;;;;;;2.38;2.08;;;42.30;19.10;;;;;;6202373;28;20250;-69
2021/11/04 11:10:53;;;;;;;2.28;1.70;;;41.40;20.30;;;;;;6202719;28;20228;-69
2021/11/04 11:13:59;;;;;;;2.38;1.85;;;41.10;19.50;;;;;;6203697;28;20233;-69
2021/11/04 11:17:04;;;;;;;1.85;1.75;;;41.30;20.00;;;;;;6202689;28;20693;-67
2021/11/04 11:20:09;;;;;;;3.15;2.05;;;41.60;20.10;;;;;;6202235;28;20570;-66
2021/11/04 11:23:14;;;;;;;1.63;1.52;;;40.00;19.90;;;;;;6202429;28;20242;-68
2021/11/04 11:26:18;;;;;;;1.67;1.58;;;40.60;19.70;;;;;;6202394;28;20249;-67
2021/11/04 11:29:22;;;;;;;1.77;1.25;;;41.30;18.90;;;;;;6200326;28;20325;-69
2021/11/04 11:32:27;;;;;;;3.65;0.73;;;40.70;18.70;;;;;;6203342;28;20211;-66
2021/11/04 11:35:30;;;;;;;1.60;0.90;;;39.30;18.80;;;;;;6203266;28;20243;-65
2021/11/04 11:38:53;;;;;;;1.63;0.88;;;39.20;19.00;;;;;;6203509;28;20221;-66
2021/11/04 11:42:12;;;;;;;1.95;0.90;;;40.90;18.20;;;;;;6203198;28;20227;-68
2021/11/04 11:45:15;;;;;;;0.80;0.60;;;43.00;17.30;;;;;;6203248;28;20254;-67
2021/11/04 11:48:20;;;;;;;1.67;1.10;;;41.80;16.70;;;;;;6203358;28;20253;-64
2021/11/04 11:51:38;;;;;;;0.80;0.60;;;40.40;17.70;;;;;;6202570;28;20238;-67
2021/11/04 11:55:07;;;;;;;1.08;0.77;;;40.80;17.60;;;;;;6203160;28;20239;-65
2021/11/04 11:58:33;;;;;;;0.88;0.45;;;42.30;16.70;;;;;;6202671;28;20298;-65
2021/11/04 12:01:46;;;;;;;1.30;0.52;;;42.30;16.40;;;;;;6202359;28;20225;-66
2021/11/04 12:05:38;;;;;;;1.27;0.60;;;42.00;16.40;;;;;;6202629;28;20238;-65
2021/11/04 12:08:43;;;;;;;0.95;0.63;;;39.30;17.70;;;;;;6198260;28;20241;-64
2021/11/04 12:11:48;;;;;;;1.83;0.80;;;37.70;19.30;;;;;;6201633;28;20241;-66
2021/11/04 12:15:04;;;;;;;1.77;1.10;;;36.70;19.80;;;;;;6202483;28;20224;-67
2021/11/04 12:18:15;;;;;;;1.25;0.85;;;34.60;21.50;;;;;;6178684;28;20241;-66
2021/11/04 12:21:21;;;;;;;1.15;0.85;;;34.50;22.20;;;;;;6184839;28;20242;-65
2021/11/04 12:24:24;;;;;;;1.73;0.80;;;36.30;21.00;;;;;;6202077;28;20565;-66
2021/11/04 12:27:29;;;;;;;1.95;1.00;;;36.10;20.20;;;;;;6198181;28;20232;-68
2021/11/04 12:30:39;;;;;;;1.15;0.52;;;35.10;21.60;;;;;;6185023;28;20224;-68
2021/11/04 12:33:42;;;;;;;1.45;0.82;;;35.70;20.60;;;;;;6201014;28;20236;-68
2021/11/04 12:36:46;;;;;;;1.35;0.80;;;37.40;20.20;;;;;;6202050;28;20264;-69
2021/11/04 12:39:51;;;;;;;2.67;1.08;;;39.40;19.10;;;;;;6201481;28;20265;-69
2021/11/04 12:42:54;;;;;;;1.77;1.60;;;40.80;18.10;;;;;;6199473;28;20251;-69
2021/11/04 12:46:13;;;;;;;1.42;1.05;;;41.20;17.60;;;;;;6201876;28;20233;-69
2021/11/04 12:49:17;;;;;;;2.22;1.08;;;42.00;16.70;;;;;;6201294;28;20561;-69
2021/11/04 12:52:26;;;;;;;0.90;0.60;;;42.00;17.00;;;;;;6201610;28;20273;-68
2021/11/04 12:55:29;;;;;;;0.80;0.47;;;41.30;16.50;;;;;;6177472;28;20247;-69
2021/11/04 12:58:32;;;;;;;2.05;0.70;;;38.70;17.40;;;;;;6177443;28;20227;-69
2021/11/04 13:01:58;;;;;;;0.98;0.68;;;35.50;19.30;;;;;;6193696;28;20665;-69
2021/11/04 13:05:03;;;;;;;1.50;0.57;;;32.30;21.90;;;;;;6201143;28;20981;-69
2021/11/04 13:08:08;;;;;;;0.97;0.60;;;30.00;23.60;;;;;;6201608;28;20255;-68
2021/11/04 13:11:16;;;;;;;1.40;0.73;;;28.10;25.60;;;;;;6187625;28;20229;-69
2021/11/04 13:14:19;;;;;;;2.03;0.80;;;26.90;27.20;;;;;;6202189;28;20225;-69
2021/11/04 13:17:24;;;;;;;2.20;0.80;;;25.80;28.20;;;;;;6200806;28;20666;-68
2021/11/04 13:20:30;;;;;;;0.80;0.60;;;26.00;29.00;;;;;;6201194;28;20303;-69
2021/11/04 13:23:33;;;;;;;2.60;0.67;;;26.10;28.50;;;;;;6200760;28;20244;-70
2021/11/04 13:26:36;;;;;;;2.37;1.07;;;26.00;28.60;;;;;;6202423;28;20221;-71
2021/11/04 13:29:48;;;;;;;2.40;1.00;;;25.50;29.30;;;;;;6202173;28;20228;-68
2021/11/04 13:32:53;;;;;;;2.10;0.60;;;25.00;30.00;;;;;;6201591;28;20237;-68
2021/11/04 13:36:02;;;;;;;3.20;1.00;;;24.70;30.20;;;;;;6201170;28;20545;-68
2021/11/04 13:39:09;;;;;;;1.97;0.70;;;24.10;30.80;;;;;;6195991;28;20271;-67
2021/11/04 13:42:31;;;;;;;1.00;0.83;;;23.30;32.20;;;;;;6177368;28;20254;-67
2021/11/04 13:45:34;;;;;;;1.17;0.60;;;23.10;32.90;;;;;;6156619;28;20695;-67
2021/11/04 13:48:43;;;;;;;1.40;0.93;;;23.40;32.70;;;;;;6162817;28;20662;-68
2021/11/04 13:51:52;;;;;;;1.30;0.67;;;23.20;32.90;;;;;;6224819;28;20228;-68
2021/11/04 13:54:56;;;;;;;2.07;1.20;;;23.30;32.20;;;;;;6225411;28;20228;-68
2021/11/04 13:57:59;;;;;;;1.30;1.00;;;23.00;32.80;;;;;;6225718;28;20594;-68
2021/11/04 14:01:05;;;;;;;0.80;0.60;;;22.60;33.30;;;;;;6229974;28;20259;-69
2021/11/04 14:04:12;;;;;;;0.93;0.70;;;22.20;31.60;;;;;;6222046;28;20284;-69
2021/11/04 14:07:24;;;;;;;1.43;0.83;;;21.80;31.90;;;;;;6205470;28;20551;-68
2021/11/04 14:10:27;;;;;;;1.10;0.90;;;21.60;33.00;;;;;;6205812;28;20248;-68
2021/11/04 14:13:52;;;;;;;1.10;0.60;;;21.20;33.20;;;;;;6200445;28;20233;-66
2021/11/04 14:17:05;;;;;;;1.10;0.80;;;20.60;34.70;;;;;;6205919;28;20248;-69
2021/11/04 14:20:10;;;;;;;2.63;0.90;;;20.40;35.20;;;;;;6205562;28;20854;-69
2021/11/04 14:23:17;;;;;;;1.63;1.00;;;20.20;36.00;;;;;;6205759;28;20237;-70
2021/11/04 14:26:20;;;;;;;2.30;0.73;;;20.10;36.00;;;;;;6204736;28;20280;-65
2021/11/04 14:29:23;;;;;;;2.60;1.00;;;19.90;36.20;;;;;;6180997;28;20245;-64
2021/11/04 14:32:26;;;;;;;1.33;1.00;;;19.60;36.30;;;;;;6204935;28;20228;-65
2021/11/04 14:35:31;;;;;;;1.20;0.70;;;19.50;37.00;;;;;;6204572;28;20540;-66
2021/11/04 14:38:34;;;;;;;1.60;0.80;;;19.00;36.40;;;;;;6202986;28;20224;-67
2021/11/04 14:41:37;;;;;;;2.87;1.07;;;18.80;37.60;;;;;;6181311;28;20206;-64
2021/11/04 14:44:40;;;;;;;2.40;1.03;;;18.80;38.30;;;;;;6180320;28;20226;-64
2021/11/04 14:47:44;;;;;;;2.50;2.20;;;18.80;38.00;;;;;;6180490;28;20237;-65
2021/11/04 14:50:48;;;;;;;2.53;1.30;;;18.70;38.60;;;;;;6195774;28;20233;-65
2021/11/04 14:53:51;;;;;;;1.20;0.90;;;18.60;38.40;;;;;;6204510;28;20237;-66
2021/11/04 14:56:55;;;;;;;1.67;1.00;;;18.60;38.50;;;;;;6204528;28;20241;-65
2021/11/04 14:59:58;;;;;;;4.57;1.37;;;18.40;38.50;;;;;;6204264;28;20233;-66
2021/11/04 15:03:01;;;;;;;1.50;0.70;;;18.30;38.90;;;;;;6203877;28;20229;-67
2021/11/04 15:06:06;;;;;;;1.90;0.80;;;18.20;39.30;;;;;;6203421;28;20577;-65
2021/11/04 15:09:11;;;;;;;1.10;0.90;;;18.00;40.00;;;;;;6203936;28;20497;-66
2021/11/04 15:12:15;;;;;;;1.40;1.10;;;17.90;40.50;;;;;;6203484;28;20472;-65
2021/11/04 15:15:18;;;;;;;1.90;1.27;;;17.70;41.20;;;;;;6199199;28;20496;-65
2021/11/04 15:18:21;;;;;;;2.30;1.00;;;17.60;41.80;;;;;;6188038;28;20476;-64
2021/11/04 15:21:26;;;;;;;1.93;1.03;;;17.50;42.30;;;;;;6202428;28;20971;-66
2021/11/04 15:24:29;;;;;;;1.83;0.97;;;17.30;42.60;;;;;;6202249;28;20488;-65
2021/11/04 15:27:33;;;;;;;1.47;1.00;;;17.10;43.50;;;;;;6202895;28;20481;-68
2021/11/04 15:30:36;;;;;;;2.80;1.13;;;17.00;43.40;;;;;;6203140;28;20527;-64
2021/11/04 15:33:39;;;;;;;1.60;1.10;;;16.90;44.30;;;;;;6192226;28;20469;-65
2021/11/04 15:36:44;;;;;;;1.93;1.50;;;16.80;44.00;;;;;;6197256;28;20814;-67
2021/11/04 15:39:47;;;;;;;2.00;1.30;;;16.70;44.10;;;;;;6196856;28;20497;-67
2021/11/04 15:42:50;;;;;;;1.67;1.23;;;16.60;44.70;;;;;;6195380;28;20474;-65
2021/11/04 15:45:53;;;;;;;2.63;1.80;;;16.50;45.20;;;;;;6193008;28;20474;-64
2021/11/04 15:48:57;;;;;;;4.00;1.93;;;16.40;45.30;;;;;;6196403;28;20477;-65
2021/11/04 15:52:02;;;;;;;1.53;1.30;;;16.40;45.50;;;;;;6217585;28;20469;-64